createdAt,value
2024-03-03T00:00:50.433Z,60.32
2024-03-03T00:03:39.050Z,59.38
2024-03-03T00:06:10.566Z,59.90
2024-03-03T00:08:38.982Z,60.67
2024-03-03T00:11:07.598Z,60.40
2024-03-03T00:13:36.176Z,60.10
2024-03-03T00:16:07.786Z,59.81
2024-03-03T00:18:40.387Z,60.61
2024-03-03T00:21:15.950Z,59.26
2024-03-03T00:23:44.809Z,60.61
2024-03-03T00:26:13.774Z,60.53
2024-03-03T00:28:42.142Z,60.97
2024-03-03T00:31:11.088Z,60.29
2024-03-03T00:33:39.746Z,60.03
2024-03-03T00:36:09.698Z,60.10
2024-03-03T00:38:38.665Z,60.46
2024-03-03T00:41:07.818Z,60.22
2024-03-03T00:43:36.913Z,61.04
2024-03-03T00:46:06.685Z,61.30
2024-03-03T00:48:35.403Z,60.66
2024-03-03T00:51:04.277Z,61.10
2024-03-03T00:53:32.580Z,61.22
2024-03-03T00:56:00.936Z,61.53
2024-03-03T00:58:29.710Z,61.26
2024-03-03T01:00:58.134Z,61.02
2024-03-03T01:03:28.036Z,61.50
2024-03-03T01:05:56.518Z,62.15
2024-03-03T01:08:24.878Z,61.79
2024-03-03T01:10:54.310Z,61.11
2024-03-03T01:13:22.940Z,61.48
2024-03-03T01:15:51.422Z,61.92
2024-03-03T01:18:19.939Z,61.69
2024-03-03T01:20:48.720Z,61.60
2024-03-03T01:23:17.501Z,61.85
2024-03-03T01:25:47.437Z,61.67
2024-03-03T01:28:16.103Z,61.42
2024-03-03T01:30:44.964Z,61.58
2024-03-03T01:33:13.395Z,61.10
2024-03-03T01:35:41.893Z,61.62
2024-03-03T01:38:10.373Z,61.59
2024-03-03T01:40:38.963Z,61.92
2024-03-03T01:43:09.051Z,61.29
2024-03-03T01:45:37.696Z,61.75
2024-03-03T01:48:07.466Z,61.42
2024-03-03T01:50:37.906Z,61.71
2024-03-03T01:53:07.832Z,61.63
2024-03-03T01:55:36.755Z,61.87
2024-03-03T01:58:06.997Z,61.95
2024-03-03T02:00:37.018Z,60.99
2024-03-03T02:03:07.938Z,61.79
2024-03-03T02:05:38.400Z,62.05
2024-03-03T02:08:08.085Z,62.04
2024-03-03T02:10:38.025Z,62.40
2024-03-03T02:13:06.764Z,61.85
2024-03-03T02:15:35.539Z,61.87
2024-03-03T02:18:04.273Z,61.53
2024-03-03T02:20:33.226Z,60.99
2024-03-03T02:23:01.870Z,61.18
2024-03-03T02:25:30.417Z,61.57
2024-03-03T02:27:58.977Z,61.83
2024-03-03T02:30:27.642Z,62.28
2024-03-03T02:32:56.170Z,62.03
2024-03-03T02:35:24.835Z,62.55
2024-03-03T02:37:53.217Z,62.89
2024-03-03T02:40:21.851Z,63.37
2024-03-03T02:42:50.419Z,62.43
2024-03-03T02:45:19.267Z,62.82
2024-03-03T02:47:49.551Z,62.52
2024-03-03T02:50:18.358Z,63.20
2024-03-03T02:52:46.856Z,63.18
2024-03-03T02:55:15.536Z,63.13
2024-03-03T02:57:44.008Z,63.63
2024-03-03T03:00:13.136Z,62.72
2024-03-03T03:02:41.806Z,62.87
2024-03-03T03:05:10.680Z,62.67
2024-03-03T03:07:39.035Z,62.86
2024-03-03T03:10:08.937Z,62.27
2024-03-03T03:12:37.516Z,62.28
2024-03-03T03:15:07.302Z,63.23
2024-03-03T03:17:35.721Z,62.67
2024-03-03T03:20:05.890Z,63.67
2024-03-03T03:22:34.391Z,62.40
2024-03-03T03:25:02.935Z,63.34
2024-03-03T03:27:32.468Z,63.34
2024-03-03T03:30:00.725Z,63.39
2024-03-03T03:32:29.353Z,63.59
2024-03-03T03:34:57.806Z,63.94
2024-03-03T03:37:26.176Z,63.92
2024-03-03T03:39:54.686Z,63.94
2024-03-03T03:42:23.165Z,63.84
2024-03-03T03:44:51.462Z,63.32
2024-03-03T03:47:19.800Z,63.87
2024-03-03T03:49:48.333Z,63.74
2024-03-03T03:52:16.730Z,64.20
2024-03-03T03:54:45.224Z,63.87
2024-03-03T03:57:14.010Z,63.41
2024-03-03T03:59:43.124Z,63.72
2024-03-03T04:02:11.469Z,64.09
2024-03-03T04:04:39.642Z,63.29
2024-03-03T04:07:08.684Z,62.61
2024-03-03T04:09:37.310Z,62.81
2024-03-03T04:12:06.501Z,62.34
2024-03-03T04:14:35.145Z,62.38
2024-03-03T04:17:03.526Z,62.69
2024-03-03T04:19:32.191Z,62.68
2024-03-03T04:22:00.750Z,63.26
2024-03-03T04:24:29.354Z,62.86
2024-03-03T04:26:57.702Z,62.77
2024-03-03T04:29:26.986Z,62.71
2024-03-03T04:31:55.597Z,63.13
2024-03-03T04:34:27.526Z,63.40
2024-03-03T04:36:56.582Z,63.21
2024-03-03T04:39:26.822Z,63.27
2024-03-03T04:41:55.664Z,63.14
2024-03-03T04:44:24.108Z,63.78
2024-03-03T04:46:52.861Z,63.94
2024-03-03T04:49:21.532Z,64.11
2024-03-03T04:51:50.598Z,63.23
2024-03-03T04:54:19.140Z,63.65
2024-03-03T04:56:47.444Z,63.63
2024-03-03T04:59:15.959Z,63.61
2024-03-03T05:01:44.415Z,63.10
2024-03-03T05:04:15.100Z,63.01
2024-03-03T05:06:46.149Z,62.96
2024-03-03T05:09:14.660Z,63.01
2024-03-03T05:11:44.908Z,62.99
2024-03-03T05:14:13.531Z,62.83
2024-03-03T05:16:42.444Z,62.80
2024-03-03T05:19:10.997Z,62.95
2024-03-03T05:21:40.344Z,63.14
2024-03-03T05:24:08.904Z,62.71
2024-03-03T05:26:37.296Z,63.00
2024-03-03T05:29:06.893Z,62.97
2024-03-03T05:31:42.725Z,62.74
2024-03-03T05:34:15.037Z,62.97
2024-03-03T05:36:44.610Z,63.36
2024-03-03T05:39:14.189Z,63.28
2024-03-03T05:41:43.756Z,63.25
2024-03-03T05:44:12.283Z,63.15
2024-03-03T05:46:40.724Z,62.87
2024-03-03T05:49:09.076Z,62.95
2024-03-03T05:51:37.772Z,62.69
2024-03-03T05:54:07.521Z,62.47
2024-03-03T05:56:38.622Z,62.91
2024-03-03T05:59:07.817Z,62.64
2024-03-03T06:01:36.490Z,62.37
2024-03-03T06:04:05.223Z,62.26
2024-03-03T06:06:33.705Z,62.35
2024-03-03T06:09:02.324Z,62.06
2024-03-03T06:11:31.092Z,62.68
2024-03-03T06:13:59.689Z,62.56
2024-03-03T06:16:28.338Z,62.51
2024-03-03T06:18:56.829Z,62.57
2024-03-03T06:21:25.386Z,62.62
2024-03-03T06:23:54.183Z,62.66
2024-03-03T06:26:22.859Z,62.66
2024-03-03T06:28:51.253Z,62.50
2024-03-03T06:31:19.781Z,62.28
2024-03-03T06:33:48.435Z,62.17
2024-03-03T06:36:21.068Z,62.35
2024-03-03T06:38:51.392Z,62.06
2024-03-03T06:41:20.654Z,62.08
2024-03-03T06:43:49.014Z,62.24
2024-03-03T06:46:17.846Z,61.89
2024-03-03T06:48:46.387Z,62.03
2024-03-03T06:51:15.516Z,62.23
2024-03-03T06:53:44.099Z,62.53
2024-03-03T06:56:16.968Z,62.38
2024-03-03T06:58:47.282Z,62.01
2024-03-03T07:01:15.921Z,61.90
2024-03-03T07:03:59.962Z,61.60
2024-03-03T07:06:28.422Z,61.43
2024-03-03T07:08:57.210Z,61.40
2024-03-03T07:11:26.137Z,61.07
2024-03-03T07:13:54.848Z,61.17
2024-03-03T07:16:23.171Z,61.06
2024-03-03T07:18:51.653Z,61.10
2024-03-03T07:21:20.121Z,60.72
2024-03-03T07:23:48.666Z,60.55
2024-03-03T07:26:17.083Z,60.32
2024-03-03T07:28:45.647Z,59.88
2024-03-03T07:31:14.057Z,59.78
2024-03-03T07:33:42.650Z,59.51
2024-03-03T07:36:11.118Z,59.22
2024-03-03T07:38:40.026Z,59.19
2024-03-03T07:41:08.397Z,58.81
2024-03-03T07:43:37.008Z,58.73
2024-03-03T07:46:05.964Z,58.41
2024-03-03T07:48:35.217Z,58.40
2024-03-03T07:51:05.153Z,58.11
2024-03-03T07:53:34.304Z,58.06
2024-03-03T07:56:03.022Z,57.64
2024-03-03T07:58:38.115Z,57.57
2024-03-03T08:01:07.174Z,57.58
2024-03-03T08:03:35.739Z,56.99
2024-03-03T08:06:04.697Z,57.22
2024-03-03T08:08:33.187Z,57.39
2024-03-03T08:11:01.455Z,57.04
2024-03-03T08:13:30.037Z,57.27
2024-03-03T08:15:58.512Z,57.60
2024-03-03T08:18:27.007Z,57.61
2024-03-03T08:20:55.456Z,57.90
2024-03-03T08:23:24.010Z,57.95
2024-03-03T08:25:53.197Z,57.67
2024-03-03T08:28:21.604Z,57.26
2024-03-03T08:30:50.353Z,57.25
2024-03-03T08:33:18.813Z,57.32
2024-03-03T08:35:47.489Z,57.31
2024-03-03T08:38:15.954Z,56.93
2024-03-03T08:40:44.698Z,56.82
2024-03-03T08:43:13.372Z,56.47
2024-03-03T08:45:41.834Z,56.39
2024-03-03T08:48:10.455Z,56.03
2024-03-03T08:50:38.820Z,55.41
2024-03-03T08:53:07.307Z,54.81
2024-03-03T08:55:35.892Z,54.35
2024-03-03T08:58:05.240Z,54.39
2024-03-03T09:00:34.635Z,54.20
2024-03-03T09:03:03.161Z,53.96
2024-03-03T09:05:31.546Z,53.78
2024-03-03T09:08:00.174Z,54.18
2024-03-03T09:10:28.618Z,53.95
2024-03-03T09:12:57.257Z,53.08
2024-03-03T09:15:25.766Z,53.64
2024-03-03T09:17:54.246Z,52.87
2024-03-03T09:20:23.052Z,52.34
2024-03-03T09:22:51.556Z,52.55
2024-03-03T09:25:20.436Z,52.61
2024-03-03T09:27:49.602Z,51.58
2024-03-03T09:30:18.346Z,50.88
2024-03-03T09:32:51.640Z,51.63
2024-03-03T09:35:20.785Z,50.72
2024-03-03T09:37:50.582Z,50.90
2024-03-03T09:40:19.247Z,51.72
2024-03-03T09:42:48.047Z,51.63
2024-03-03T09:45:21.282Z,51.06
2024-03-03T09:47:50.576Z,51.45
2024-03-03T09:50:21.070Z,50.62
2024-03-03T09:52:53.826Z,50.69
2024-03-03T09:55:24.582Z,51.02
2024-03-03T09:57:53.754Z,49.87
2024-03-03T10:00:23.885Z,50.71
2024-03-03T10:02:54.779Z,49.94
2024-03-03T10:05:26.790Z,49.46
2024-03-03T10:08:03.283Z,49.80
2024-03-03T10:10:32.622Z,49.66
2024-03-03T10:13:04.555Z,49.60
2024-03-03T10:15:34.683Z,49.46
2024-03-03T10:18:04.423Z,48.67
2024-03-03T10:20:33.675Z,48.81
2024-03-03T10:23:02.071Z,49.31
2024-03-03T10:25:32.054Z,49.17
2024-03-03T10:28:16.328Z,49.47
2024-03-03T10:30:44.991Z,47.91
2024-03-03T10:33:13.812Z,48.67
2024-03-03T10:35:42.641Z,48.49
2024-03-03T10:38:12.420Z,48.25
2024-03-03T10:40:44.184Z,48.75
2024-03-03T10:43:12.830Z,48.88
2024-03-03T10:45:41.994Z,48.26
2024-03-03T10:48:11.432Z,48.69
2024-03-03T10:50:39.918Z,48.91
2024-03-03T10:53:13.307Z,48.92
2024-03-03T10:55:43.137Z,48.31
2024-03-03T10:58:11.944Z,48.69
2024-03-03T11:00:41.260Z,48.36
2024-03-03T11:03:12.770Z,48.46
2024-03-03T11:05:45.699Z,48.60
2024-03-03T11:08:15.396Z,47.96
2024-03-03T11:10:44.126Z,47.60
2024-03-03T11:13:15.446Z,47.84
2024-03-03T11:15:48.858Z,47.93
2024-03-03T11:18:22.157Z,48.20
2024-03-03T11:20:55.419Z,48.28
2024-03-03T11:23:49.082Z,48.03
2024-03-03T11:26:27.711Z,47.77
2024-03-03T11:28:59.991Z,47.82
2024-03-03T11:31:30.612Z,47.66
2024-03-03T11:34:00.596Z,48.23
2024-03-03T11:36:29.733Z,48.17
2024-03-03T11:39:10.749Z,48.12
2024-03-03T11:41:40.832Z,47.66
2024-03-03T11:44:37.683Z,47.85
2024-03-03T11:47:06.966Z,48.30
2024-03-03T11:49:43.409Z,48.03
2024-03-03T11:52:12.440Z,47.98
2024-03-03T11:54:43.174Z,47.77
2024-03-03T11:57:19.615Z,47.75
2024-03-03T11:59:48.634Z,47.63
2024-03-03T12:02:18.173Z,47.73
2024-03-03T12:04:49.909Z,47.38
2024-03-03T12:07:21.737Z,46.81
2024-03-03T12:09:50.567Z,47.32
2024-03-03T12:12:20.264Z,47.25
2024-03-03T12:14:49.131Z,47.17
2024-03-03T12:17:18.202Z,47.03
2024-03-03T12:19:48.158Z,47.28
2024-03-03T12:22:16.787Z,46.81
2024-03-03T12:24:56.136Z,47.34
2024-03-03T12:27:24.760Z,47.03
2024-03-03T12:30:06.641Z,46.71
2024-03-03T12:32:35.773Z,45.84
2024-03-03T12:35:04.699Z,46.51
2024-03-03T12:37:33.395Z,45.52
2024-03-03T12:40:02.414Z,45.45
2024-03-03T12:42:30.892Z,45.03
2024-03-03T12:45:01.131Z,44.97
2024-03-03T12:47:29.628Z,44.87
2024-03-03T12:49:58.500Z,45.14
2024-03-03T12:52:29.281Z,45.15
2024-03-03T12:54:58.881Z,45.54
2024-03-03T12:57:29.261Z,45.44
2024-03-03T12:59:59.041Z,45.49
2024-03-03T13:02:29.086Z,45.48
2024-03-03T13:04:59.336Z,45.23
2024-03-03T13:07:28.584Z,45.33
2024-03-03T13:09:57.167Z,45.11
2024-03-03T13:12:26.447Z,45.02
2024-03-03T13:14:55.987Z,45.20
2024-03-03T13:17:24.720Z,44.91
2024-03-03T13:19:55.528Z,44.70
2024-03-03T13:22:25.014Z,44.31
2024-03-03T13:25:03.157Z,43.96
2024-03-03T13:27:32.907Z,43.88
2024-03-03T13:30:08.539Z,44.24
2024-03-03T13:32:37.287Z,44.71
2024-03-03T13:35:06.057Z,44.30
2024-03-03T13:37:34.616Z,44.52
2024-03-03T13:40:03.986Z,44.64
2024-03-03T13:42:32.602Z,44.29
2024-03-03T13:45:02.808Z,43.93
2024-03-03T13:47:31.561Z,43.97
2024-03-03T13:50:00.505Z,44.11
2024-03-03T13:52:29.030Z,44.59
2024-03-03T13:54:57.776Z,43.35
2024-03-03T13:57:26.372Z,43.30
2024-03-03T13:59:54.876Z,43.57
2024-03-03T14:02:23.403Z,43.68
2024-03-03T14:04:52.117Z,43.50
2024-03-03T14:07:20.447Z,43.87
2024-03-03T14:09:49.828Z,44.04
2024-03-03T14:12:18.358Z,43.98
2024-03-03T14:14:47.045Z,44.16
2024-03-03T14:17:16.843Z,44.06
2024-03-03T14:19:45.621Z,43.74
2024-03-03T14:22:14.040Z,43.76
2024-03-03T14:24:43.763Z,43.88
2024-03-03T14:27:12.397Z,43.51
2024-03-03T14:29:42.161Z,42.47
2024-03-03T14:32:10.822Z,43.10
2024-03-03T14:34:39.153Z,43.12
2024-03-03T14:37:09.039Z,42.83
2024-03-03T14:39:37.444Z,42.44
2024-03-03T14:42:05.984Z,42.80
2024-03-03T14:44:34.316Z,42.95
2024-03-03T14:47:05.331Z,42.40
2024-03-03T14:49:35.938Z,42.77
2024-03-03T14:52:06.329Z,42.65
2024-03-03T14:54:34.518Z,42.98
2024-03-03T14:57:03.142Z,42.53
2024-03-03T14:59:31.611Z,42.71
2024-03-03T15:02:00.201Z,42.77
2024-03-03T15:04:29.065Z,42.97
2024-03-03T15:06:58.438Z,43.20
2024-03-03T15:09:27.101Z,42.58
2024-03-03T15:11:55.406Z,42.58
2024-03-03T15:14:23.835Z,42.44
2024-03-03T15:16:52.443Z,42.74
2024-03-03T15:19:20.894Z,42.99
2024-03-03T15:21:49.342Z,43.16
2024-03-03T15:24:19.542Z,43.24
2024-03-03T15:26:47.844Z,43.34
2024-03-03T15:29:15.986Z,43.52
2024-03-03T15:31:44.632Z,43.53
2024-03-03T15:34:13.010Z,43.73
2024-03-03T15:36:43.878Z,43.91
2024-03-03T15:39:14.069Z,44.17
2024-03-03T15:41:42.382Z,44.27
2024-03-03T15:44:10.657Z,44.52
2024-03-03T15:46:38.866Z,44.57
2024-03-03T15:49:07.799Z,44.30
2024-03-03T15:51:39.734Z,44.59
2024-03-03T15:54:08.254Z,44.83
2024-03-03T15:56:36.785Z,45.06
2024-03-03T15:59:05.493Z,45.14
2024-03-03T16:01:34.360Z,45.32
2024-03-03T16:04:03.745Z,45.56
2024-03-03T16:06:33.240Z,45.73
2024-03-03T16:09:04.368Z,45.81
2024-03-03T16:11:33.041Z,46.06
2024-03-03T16:14:01.555Z,46.22
2024-03-03T16:16:31.214Z,46.14
2024-03-03T16:19:01.063Z,46.50
2024-03-03T16:21:29.613Z,46.39
2024-03-03T16:23:58.360Z,46.57
2024-03-03T16:26:26.812Z,46.59
2024-03-03T16:28:55.198Z,46.61
2024-03-03T16:31:23.805Z,46.77
2024-03-03T16:33:52.527Z,46.59
2024-03-03T16:36:21.597Z,46.54
2024-03-03T16:38:52.762Z,46.61
2024-03-03T16:41:23.046Z,46.59
2024-03-03T16:43:51.936Z,46.59
2024-03-03T16:46:22.239Z,46.68
2024-03-03T16:48:51.336Z,46.56
2024-03-03T16:51:21.317Z,46.62
2024-03-03T16:53:49.925Z,46.63
2024-03-03T16:56:18.650Z,46.63
2024-03-03T16:58:48.236Z,46.66
2024-03-03T17:01:17.567Z,47.18
2024-03-03T17:03:47.563Z,47.56
2024-03-03T17:06:17.191Z,48.30
2024-03-03T17:08:46.006Z,48.38
2024-03-03T17:11:15.085Z,48.57
2024-03-03T17:13:43.581Z,48.75
2024-03-03T17:16:13.718Z,49.42
2024-03-03T17:18:42.788Z,48.94
2024-03-03T17:21:11.190Z,49.31
2024-03-03T17:23:40.108Z,49.63
2024-03-03T17:26:09.040Z,50.41
2024-03-03T17:28:38.737Z,50.99
2024-03-03T17:31:08.692Z,51.37
2024-03-03T17:33:37.466Z,51.72
2024-03-03T17:36:06.734Z,51.93
2024-03-03T17:38:35.397Z,51.82
2024-03-03T17:41:05.298Z,51.98
2024-03-03T17:43:34.217Z,51.93
2024-03-03T17:46:03.073Z,52.18
2024-03-03T17:48:32.749Z,51.66
2024-03-03T17:51:01.489Z,52.14
2024-03-03T17:53:30.562Z,52.29
2024-03-03T17:55:59.330Z,52.78
2024-03-03T17:58:28.300Z,52.25
2024-03-03T18:00:57.769Z,51.73
2024-03-03T18:03:26.785Z,52.61
2024-03-03T18:05:55.356Z,53.24
2024-03-03T18:08:24.554Z,53.15
2024-03-03T18:10:53.847Z,52.66
2024-03-03T18:13:23.034Z,53.24
2024-03-03T18:15:53.259Z,52.97
2024-03-03T18:18:25.935Z,53.12
2024-03-03T18:20:54.843Z,52.78
2024-03-03T18:23:24.028Z,52.94
2024-03-03T18:25:52.649Z,53.03
2024-03-03T18:28:22.525Z,52.92
2024-03-03T18:30:52.252Z,53.15
2024-03-03T18:33:22.516Z,52.78
2024-03-03T18:35:51.625Z,53.00
2024-03-03T18:38:20.625Z,53.03
2024-03-03T18:40:49.417Z,52.44
2024-03-03T18:43:18.726Z,52.63
2024-03-03T18:45:47.163Z,53.15
2024-03-03T18:48:16.003Z,53.02
2024-03-03T18:50:46.728Z,52.88
2024-03-03T18:53:17.422Z,53.13
2024-03-03T18:55:46.390Z,53.54
2024-03-03T18:58:15.820Z,53.88
2024-03-03T19:00:46.990Z,54.00
2024-03-03T19:03:17.480Z,53.48
2024-03-03T19:05:47.796Z,54.11
2024-03-03T19:08:16.635Z,54.32
2024-03-03T19:10:46.924Z,54.60
2024-03-03T19:13:18.010Z,54.98
2024-03-03T19:15:47.194Z,54.66
2024-03-03T19:18:17.746Z,54.92
2024-03-03T19:20:49.240Z,54.68
2024-03-03T19:23:18.276Z,55.10
2024-03-03T19:25:46.821Z,54.80
2024-03-03T19:28:15.966Z,54.91
2024-03-03T19:30:45.124Z,55.21
2024-03-03T19:33:14.456Z,55.16
2024-03-03T19:35:43.398Z,55.23
2024-03-03T19:38:12.134Z,55.62
2024-03-03T19:40:41.189Z,55.69
2024-03-03T19:43:09.982Z,55.48
2024-03-03T19:45:38.364Z,55.60
2024-03-03T19:48:07.576Z,55.43
2024-03-03T19:50:37.339Z,56.07
2024-03-03T19:53:06.490Z,55.71
2024-03-03T19:55:35.640Z,56.37
2024-03-03T19:58:04.781Z,55.80
2024-03-03T20:00:33.946Z,56.24
2024-03-03T20:03:07.133Z,56.39
2024-03-03T20:05:36.337Z,56.62
2024-03-03T20:08:06.488Z,56.60
2024-03-03T20:10:35.947Z,56.24
2024-03-03T20:13:05.742Z,56.18
2024-03-03T20:15:35.413Z,55.98
2024-03-03T20:18:04.715Z,56.41
2024-03-03T20:20:33.556Z,56.78
2024-03-03T20:23:02.536Z,56.82
2024-03-03T20:25:31.614Z,57.21
2024-03-03T20:28:00.495Z,56.87
2024-03-03T20:30:29.803Z,57.08
2024-03-03T20:32:59.274Z,57.27
2024-03-03T20:35:28.090Z,57.61
2024-03-03T20:37:57.608Z,57.39
2024-03-03T20:40:27.905Z,57.47
2024-03-03T20:42:56.948Z,57.94
2024-03-03T20:45:25.924Z,58.17
2024-03-03T20:47:55.468Z,58.45
2024-03-03T20:50:24.638Z,59.23
2024-03-03T20:52:53.604Z,59.35
2024-03-03T20:55:22.190Z,59.01
2024-03-03T20:57:50.912Z,58.99
2024-03-03T21:00:21.006Z,58.70
2024-03-03T21:02:49.987Z,58.59
2024-03-03T21:05:18.558Z,59.22
2024-03-03T21:07:47.346Z,59.82
2024-03-03T21:10:16.496Z,59.88
2024-03-03T21:12:45.475Z,59.92
2024-03-03T21:15:14.281Z,59.63
2024-03-03T21:17:43.457Z,59.46
2024-03-03T21:20:14.681Z,59.71
2024-03-03T21:22:44.811Z,59.37
2024-03-03T21:25:17.375Z,59.22
2024-03-03T21:27:52.481Z,59.20
2024-03-03T21:30:23.802Z,58.99
2024-03-03T21:32:53.558Z,58.85
2024-03-03T21:35:21.952Z,59.11
2024-03-03T21:37:50.528Z,58.94
2024-03-03T21:40:19.264Z,58.96
2024-03-03T21:42:48.199Z,59.10
2024-03-03T21:45:17.303Z,59.00
2024-03-03T21:47:45.762Z,59.00
2024-03-03T21:50:17.593Z,59.14
2024-03-03T21:52:46.597Z,59.35
2024-03-03T21:55:15.902Z,59.33
2024-03-03T21:57:45.448Z,59.57
2024-03-03T22:00:15.904Z,59.45
2024-03-03T22:02:45.248Z,59.60
2024-03-03T22:05:15.048Z,59.52
2024-03-03T22:07:44.087Z,59.73
2024-03-03T22:10:13.901Z,59.70
2024-03-03T22:12:42.787Z,59.53
2024-03-03T22:15:13.037Z,59.25
2024-03-03T22:17:41.801Z,59.33
2024-03-03T22:20:12.140Z,59.62
2024-03-03T22:22:41.409Z,59.57
2024-03-03T22:25:10.752Z,59.74
2024-03-03T22:27:39.865Z,59.84
2024-03-03T22:30:09.543Z,59.79
2024-03-03T22:32:38.071Z,59.94
2024-03-03T22:35:07.233Z,60.37
2024-03-03T22:37:38.404Z,60.42
2024-03-03T22:40:12.160Z,60.49
2024-03-03T22:42:41.006Z,60.66
2024-03-03T22:45:09.752Z,60.71
2024-03-03T22:47:38.916Z,60.55
2024-03-03T22:50:09.014Z,60.81
2024-03-03T22:52:37.880Z,61.09
2024-03-03T22:55:07.202Z,60.78
2024-03-03T22:57:36.262Z,60.63
2024-03-03T23:00:06.688Z,60.32
2024-03-03T23:02:35.973Z,60.33
2024-03-03T23:05:07.125Z,60.39
2024-03-03T23:07:36.205Z,60.81
2024-03-03T23:10:06.191Z,60.67
2024-03-03T23:12:35.486Z,60.76
2024-03-03T23:15:04.884Z,60.75
2024-03-03T23:17:34.047Z,60.72
2024-03-03T23:20:03.055Z,61.09
2024-03-03T23:22:32.253Z,61.43
2024-03-03T23:25:01.487Z,61.41
2024-03-03T23:27:30.433Z,61.71
2024-03-03T23:29:59.101Z,61.98
2024-03-03T23:32:27.812Z,62.00
2024-03-03T23:34:56.297Z,62.32
2024-03-03T23:37:24.806Z,62.45
2024-03-03T23:39:53.253Z,62.26
2024-03-03T23:42:22.114Z,62.61
2024-03-03T23:44:51.011Z,62.88
2024-03-03T23:47:19.685Z,62.71
2024-03-03T23:49:48.544Z,62.70
2024-03-03T23:52:17.521Z,62.43
2024-03-03T23:54:46.540Z,62.28
2024-03-03T23:57:15.278Z,62.22
2024-03-03T23:59:44.054Z,62.19
